createdAt,value
2019-05-22T00:08:57.291Z,0.20
2019-05-22T00:19:03.489Z,0.20
2019-05-22T00:29:09.187Z,0.20
2019-05-22T00:39:16.454Z,0.20
2019-05-22T00:49:24.839Z,0.20
2019-05-22T00:59:33.604Z,0.17
2019-05-22T01:09:42.206Z,0.20
2019-05-22T01:19:51.493Z,0.30
2019-05-22T01:29:58.281Z,0.20
2019-05-22T01:40:08.163Z,0.23
2019-05-22T01:50:21.444Z,0.27
2019-05-22T02:00:28.749Z,0.20
2019-05-22T02:10:37.052Z,0.20
2019-05-22T02:20:42.820Z,0.20
2019-05-22T02:30:49.361Z,0.20
2019-05-22T02:40:55.116Z,0.30
2019-05-22T02:51:00.438Z,0.20
2019-05-22T03:01:06.731Z,0.20
2019-05-22T03:11:12.101Z,0.20
2019-05-22T03:21:17.533Z,0.10
2019-05-22T03:31:22.963Z,0.27
2019-05-22T03:41:28.458Z,0.20
2019-05-22T03:51:34.027Z,0.10
2019-05-22T04:01:39.443Z,0.20
2019-05-22T04:11:46.510Z,0.20
2019-05-22T04:21:52.913Z,0.30
2019-05-22T04:32:17.134Z,0.10
2019-05-22T04:42:23.673Z,0.20
2019-05-22T04:52:29.426Z,0.20
2019-05-22T05:02:34.797Z,0.20
2019-05-22T05:12:43.040Z,0.20
2019-05-22T05:22:48.776Z,0.20
2019-05-22T05:32:54.680Z,0.10
2019-05-22T05:43:00.195Z,0.20
2019-05-22T05:53:06.698Z,0.10
2019-05-22T06:03:37.260Z,0.20
2019-05-22T06:13:44.674Z,0.20
2019-05-22T06:24:23.890Z,0.10
2019-05-22T06:34:29.369Z,0.20
2019-05-22T06:44:44.379Z,0.10
2019-05-22T06:54:49.884Z,0.30
2019-05-22T07:04:55.222Z,0.10
2019-05-22T07:15:34.554Z,0.20
2019-05-22T07:25:42.125Z,0.20
2019-05-22T07:36:07.823Z,0.20
2019-05-22T07:45:57.185Z,0.20
2019-05-22T07:56:03.456Z,0.20
2019-05-22T08:06:09.896Z,0.10
2019-05-22T08:16:18.283Z,0.20
2019-05-22T08:26:23.899Z,0.20
2019-05-22T08:36:29.309Z,0.20
2019-05-22T08:46:34.808Z,0.20
2019-05-22T08:56:40.438Z,0.10
2019-05-22T09:06:45.776Z,0.20
2019-05-22T09:16:52.029Z,0.10
2019-05-22T09:26:58.179Z,0.20
2019-05-22T09:37:05.014Z,0.17
2019-05-22T09:47:10.391Z,0.20
2019-05-22T09:57:16.161Z,0.20
2019-05-22T10:07:21.955Z,0.20
2019-05-22T10:17:28.034Z,0.30
2019-05-22T10:27:33.964Z,0.27
2019-05-22T10:37:39.411Z,0.20
2019-05-22T10:47:45.352Z,0.20
2019-05-22T10:57:50.997Z,0.30
2019-05-22T11:07:56.563Z,0.20
2019-05-22T11:18:02.555Z,0.20
2019-05-22T11:28:07.904Z,0.20
2019-05-22T11:38:13.334Z,0.30
2019-05-22T11:48:18.847Z,0.20
2019-05-22T11:58:24.294Z,0.30
2019-05-22T12:08:29.722Z,0.20
2019-05-22T12:18:35.559Z,0.30
2019-05-22T12:28:42.556Z,0.30
2019-05-22T12:38:47.859Z,0.30
2019-05-22T12:48:54.297Z,0.20
2019-05-22T12:59:00.074Z,0.30
2019-05-22T13:09:07.665Z,0.20
2019-05-22T13:19:13.632Z,0.30
2019-05-22T13:29:19.235Z,0.30
2019-05-22T13:39:25.184Z,0.23
2019-05-22T13:49:32.831Z,0.30
2019-05-22T13:59:38.699Z,0.40
2019-05-22T14:09:44.296Z,0.27
2019-05-22T14:19:49.831Z,0.33
2019-05-22T14:29:55.499Z,0.40
2019-05-22T14:40:00.855Z,0.30
2019-05-22T14:50:06.629Z,0.40
2019-05-22T15:00:12.690Z,0.30
2019-05-22T15:10:18.210Z,0.40
2019-05-22T15:20:27.913Z,0.40
2019-05-22T15:30:33.414Z,0.50
2019-05-22T15:40:38.793Z,0.40
2019-05-22T15:50:46.114Z,0.40
2019-05-22T16:00:52.916Z,0.40
2019-05-22T16:11:00.442Z,0.30
2019-05-22T16:21:06.786Z,0.50
2019-05-22T16:31:13.671Z,0.40
2019-05-22T16:41:19.823Z,0.40
2019-05-22T16:51:25.647Z,0.40
2019-05-22T17:01:31.655Z,0.40
2019-05-22T17:11:37.139Z,0.43
2019-05-22T17:21:43.109Z,0.47
2019-05-22T17:31:48.427Z,0.43
2019-05-22T17:41:56.377Z,0.50
2019-05-22T17:52:00.973Z,0.50
2019-05-22T18:02:08.232Z,0.43
2019-05-22T18:12:15.204Z,0.50
2019-05-22T18:22:20.914Z,0.50
2019-05-22T18:32:26.368Z,0.57
2019-05-22T18:42:32.398Z,0.40
2019-05-22T18:52:41.408Z,0.50
2019-05-22T19:02:45.506Z,0.60
2019-05-22T19:12:52.265Z,0.53
2019-05-22T19:23:00.928Z,0.57
2019-05-22T19:33:05.819Z,0.60
2019-05-22T19:43:11.913Z,0.40
2019-05-22T19:53:19.495Z,0.63
2019-05-22T20:03:46.098Z,0.53
2019-05-22T20:13:51.548Z,0.50
2019-05-22T20:23:56.957Z,0.50
2019-05-22T20:34:02.388Z,0.40
2019-05-22T20:44:11.241Z,0.60
2019-05-22T20:54:17.020Z,0.63
2019-05-22T21:04:22.811Z,0.50
2019-05-22T21:14:29.193Z,0.50
2019-05-22T21:24:36.516Z,0.70
2019-05-22T21:34:42.265Z,0.57
2019-05-22T21:44:48.801Z,0.70
2019-05-22T21:54:54.366Z,0.70
2019-05-22T22:05:00.275Z,0.50
2019-05-22T22:15:07.802Z,0.47
2019-05-22T22:25:14.781Z,0.80
2019-05-22T22:35:22.139Z,0.73
2019-05-22T22:45:50.773Z,0.60
2019-05-22T22:55:57.119Z,0.63
2019-05-22T23:06:04.195Z,0.60
2019-05-22T23:16:10.110Z,0.60
2019-05-22T23:26:16.294Z,0.57
2019-05-22T23:36:22.178Z,0.60
2019-05-22T23:46:28.375Z,0.67
2019-05-22T23:56:35.024Z,0.60
